sensor_id;sensor_type;location;lat;lon;timestamp;P1;durP1;ratioP1;P2;durP2;ratioP2
24301;SDS011;12421;49.732;20.078;2023-07-20T00:09:03;22.20;;;11.50;;
24301;SDS011;12421;49.732;20.078;2023-07-20T00:19:07;19.70;;;10.90;;
24301;SDS011;12421;49.732;20.078;2023-07-20T00:29:12;17.10;;;10.10;;
24301;SDS011;12421;49.732;20.078;2023-07-20T00:39:16;16.60;;;10.80;;
24301;SDS011;12421;49.732;20.078;2023-07-20T00:49:19;14.70;;;10.40;;
24301;SDS011;12421;49.732;20.078;2023-07-20T00:59:25;18.20;;;9.50;;
24301;SDS011;12421;49.732;20.078;2023-07-20T01:10:17;19.70;;;10.50;;
24301;SDS011;12421;49.732;20.078;2023-07-20T01:42:26;17.80;;;9.00;;
24301;SDS011;12421;49.732;20.078;2023-07-20T02:15:41;13.20;;;8.10;;
24301;SDS011;12421;49.732;20.078;2023-07-20T02:26:15;10.10;;;7.00;;
24301;SDS011;12421;49.732;20.078;2023-07-20T02:48:01;11.00;;;7.10;;
24301;SDS011;12421;49.732;20.078;2023-07-20T03:21:30;16.60;;;7.00;;
24301;SDS011;12421;49.732;20.078;2023-07-20T03:32:26;9.30;;;6.20;;
24301;SDS011;12421;49.732;20.078;2023-07-20T03:43:31;11.40;;;6.90;;
24301;SDS011;12421;49.732;20.078;2023-07-20T05:23:13;7.20;;;3.00;;
24301;SDS011;12421;49.732;20.078;2023-07-20T05:33:19;11.30;;;3.10;;
24301;SDS011;12421;49.732;20.078;2023-07-20T05:44:10;7.30;;;3.20;;
24301;SDS011;12421;49.732;20.078;2023-07-20T05:54:53;7.20;;;4.00;;
24301;SDS011;12421;49.732;20.078;2023-07-20T06:05:34;8.40;;;3.70;;
24301;SDS011;12421;49.732;20.078;2023-07-20T06:27:39;7.70;;;3.10;;
24301;SDS011;12421;49.732;20.078;2023-07-20T06:38:14;7.40;;;3.10;;
24301;SDS011;12421;49.732;20.078;2023-07-20T06:48:35;5.70;;;3.00;;
24301;SDS011;12421;49.732;20.078;2023-07-20T06:59:20;4.00;;;2.20;;
24301;SDS011;12421;49.732;20.078;2023-07-20T07:09:31;7.70;;;2.80;;
24301;SDS011;12421;49.732;20.078;2023-07-20T07:19:48;6.90;;;2.50;;
24301;SDS011;12421;49.732;20.078;2023-07-20T07:29:53;5.60;;;2.20;;
24301;SDS011;12421;49.732;20.078;2023-07-20T07:39:57;4.30;;;2.40;;
24301;SDS011;12421;49.732;20.078;2023-07-20T07:50:00;3.90;;;2.00;;
24301;SDS011;12421;49.732;20.078;2023-07-20T08:00:05;8.10;;;2.10;;
24301;SDS011;12421;49.732;20.078;2023-07-20T08:10:13;5.00;;;1.90;;
24301;SDS011;12421;49.732;20.078;2023-07-20T08:20:18;5.30;;;1.50;;
24301;SDS011;12421;49.732;20.078;2023-07-20T08:30:23;3.90;;;2.10;;
24301;SDS011;12421;49.732;20.078;2023-07-20T08:40:27;5.80;;;2.00;;
24301;SDS011;12421;49.732;20.078;2023-07-20T09:00:36;2.60;;;1.50;;
24301;SDS011;12421;49.732;20.078;2023-07-20T09:10:40;3.50;;;1.60;;
24301;SDS011;12421;49.732;20.078;2023-07-20T09:20:44;2.90;;;1.60;;
24301;SDS011;12421;49.732;20.078;2023-07-20T09:30:48;2.60;;;1.80;;
24301;SDS011;12421;49.732;20.078;2023-07-20T09:40:55;4.60;;;1.70;;
24301;SDS011;12421;49.732;20.078;2023-07-20T09:51:02;2.70;;;1.50;;
24301;SDS011;12421;49.732;20.078;2023-07-20T10:01:11;6.10;;;1.70;;
24301;SDS011;12421;49.732;20.078;2023-07-20T10:11:17;5.10;;;1.70;;
24301;SDS011;12421;49.732;20.078;2023-07-20T10:21:25;3.60;;;1.80;;
24301;SDS011;12421;49.732;20.078;2023-07-20T10:31:32;5.40;;;1.80;;
24301;SDS011;12421;49.732;20.078;2023-07-20T10:41:39;3.00;;;1.70;;
24301;SDS011;12421;49.732;20.078;2023-07-20T10:51:45;3.00;;;1.60;;
24301;SDS011;12421;49.732;20.078;2023-07-20T11:01:56;3.00;;;1.40;;
24301;SDS011;12421;49.732;20.078;2023-07-20T11:12:10;3.80;;;1.60;;
24301;SDS011;12421;49.732;20.078;2023-07-20T11:22:17;3.00;;;1.30;;
24301;SDS011;12421;49.732;20.078;2023-07-20T11:32:21;2.40;;;1.00;;
24301;SDS011;12421;49.732;20.078;2023-07-20T11:42:26;2.30;;;1.00;;
24301;SDS011;12421;49.732;20.078;2023-07-20T11:52:34;2.20;;;1.30;;
24301;SDS011;12421;49.732;20.078;2023-07-20T12:02:39;2.80;;;1.40;;
24301;SDS011;12421;49.732;20.078;2023-07-20T12:12:44;3.50;;;1.50;;
24301;SDS011;12421;49.732;20.078;2023-07-20T12:22:48;4.90;;;1.50;;
24301;SDS011;12421;49.732;20.078;2023-07-20T12:33:13;2.20;;;1.20;;
24301;SDS011;12421;49.732;20.078;2023-07-20T12:43:19;4.30;;;1.20;;
24301;SDS011;12421;49.732;20.078;2023-07-20T12:53:29;3.90;;;1.30;;
24301;SDS011;12421;49.732;20.078;2023-07-20T13:03:39;2.90;;;1.50;;
24301;SDS011;12421;49.732;20.078;2023-07-20T13:14:28;2.00;;;1.20;;
24301;SDS011;12421;49.732;20.078;2023-07-20T13:24:33;2.90;;;1.20;;
24301;SDS011;12421;49.732;20.078;2023-07-20T13:34:37;3.00;;;1.30;;
24301;SDS011;12421;49.732;20.078;2023-07-20T13:44:42;4.30;;;1.80;;
24301;SDS011;12421;49.732;20.078;2023-07-20T13:55:06;3.50;;;1.60;;
24301;SDS011;12421;49.732;20.078;2023-07-20T14:05:10;5.50;;;2.00;;
24301;SDS011;12421;49.732;20.078;2023-07-20T14:15:38;3.50;;;1.60;;
24301;SDS011;12421;49.732;20.078;2023-07-20T14:26:07;5.00;;;1.50;;
24301;SDS011;12421;49.732;20.078;2023-07-20T14:36:36;3.20;;;1.70;;
24301;SDS011;12421;49.732;20.078;2023-07-20T14:46:45;3.80;;;1.80;;
24301;SDS011;12421;49.732;20.078;2023-07-20T14:57:18;6.10;;;1.50;;
24301;SDS011;12421;49.732;20.078;2023-07-20T15:07:22;5.30;;;1.80;;
24301;SDS011;12421;49.732;20.078;2023-07-20T15:17:26;3.00;;;2.10;;
24301;SDS011;12421;49.732;20.078;2023-07-20T15:38:20;4.10;;;2.10;;
24301;SDS011;12421;49.732;20.078;2023-07-20T15:48:33;2.50;;;1.80;;
24301;SDS011;12421;49.732;20.078;2023-07-20T16:10:12;4.70;;;1.10;;
24301;SDS011;12421;49.732;20.078;2023-07-20T16:42:48;4.30;;;1.10;;
24301;SDS011;12421;49.732;20.078;2023-07-20T16:53:28;4.40;;;1.00;;
24301;SDS011;12421;49.732;20.078;2023-07-20T17:03:47;2.60;;;1.00;;
24301;SDS011;12421;49.732;20.078;2023-07-20T17:14:21;3.70;;;0.80;;
24301;SDS011;12421;49.732;20.078;2023-07-20T17:24:46;3.40;;;2.20;;
24301;SDS011;12421;49.732;20.078;2023-07-20T17:45:54;4.40;;;1.60;;
24301;SDS011;12421;49.732;20.078;2023-07-20T18:07:29;4.50;;;1.60;;
24301;SDS011;12421;49.732;20.078;2023-07-20T18:18:11;3.80;;;1.80;;
24301;SDS011;12421;49.732;20.078;2023-07-20T18:39:51;5.30;;;2.50;;
24301;SDS011;12421;49.732;20.078;2023-07-20T19:01:06;5.10;;;3.30;;
24301;SDS011;12421;49.732;20.078;2023-07-20T19:11:54;4.80;;;2.80;;
24301;SDS011;12421;49.732;20.078;2023-07-20T19:22:47;6.00;;;3.40;;
24301;SDS011;12421;49.732;20.078;2023-07-20T19:43:42;9.20;;;4.10;;
24301;SDS011;12421;49.732;20.078;2023-07-20T19:54:17;5.80;;;2.70;;
24301;SDS011;12421;49.732;20.078;2023-07-20T20:04:45;4.50;;;2.70;;
24301;SDS011;12421;49.732;20.078;2023-07-20T20:15:16;9.70;;;3.30;;
24301;SDS011;12421;49.732;20.078;2023-07-20T20:36:01;7.20;;;3.50;;
24301;SDS011;12421;49.732;20.078;2023-07-20T20:46:44;7.50;;;3.00;;
24301;SDS011;12421;49.732;20.078;2023-07-20T20:56:51;6.60;;;3.00;;
24301;SDS011;12421;49.732;20.078;2023-07-20T21:17:42;5.30;;;2.90;;
24301;SDS011;12421;49.732;20.078;2023-07-20T21:28:17;6.70;;;2.70;;
24301;SDS011;12421;49.732;20.078;2023-07-20T21:38:25;5.60;;;3.10;;
24301;SDS011;12421;49.732;20.078;2023-07-20T22:00:14;8.80;;;2.40;;
24301;SDS011;12421;49.732;20.078;2023-07-20T22:22:07;7.40;;;2.50;;
24301;SDS011;12421;49.732;20.078;2023-07-20T22:44:29;3.60;;;2.50;;
24301;SDS011;12421;49.732;20.078;2023-07-20T23:40:47;7.70;;;3.50;;
